Time;durP1;ratioP1;P1;durP2;ratioP2;P2;SDS_P1;SDS_P2;PMS_P1;PMS_P2;Temp;Humidity;BMP_temperature;BMP_pressure;BME280_temperature;BME280_humidity;BME280_pressure;Samples;Min_cycle;Max_cycle;Signal;HPM_P1;HPM_P2
2022/04/11 00:00:06;;;;;;;3.80;1.98;;;3.10;93.90;;;;;;4976317;28;20038;-75
2022/04/11 00:02:32;;;;;;;4.15;1.70;;;3.10;94.00;;;;;;4994304;28;20382;-76
2022/04/11 00:04:58;;;;;;;2.10;1.90;;;3.10;94.20;;;;;;4995144;28;20034;-76
2022/04/11 00:07:23;;;;;;;3.63;1.98;;;3.10;94.50;;;;;;4994270;28;20031;-76
2022/04/11 00:09:49;;;;;;;3.38;1.40;;;3.10;94.40;;;;;;4976593;28;20462;-76
2022/04/11 00:12:14;;;;;;;2.40;1.50;;;3.20;94.00;;;;;;4977369;28;20027;-76
2022/04/11 00:14:40;;;;;;;4.80;1.75;;;3.20;94.20;;;;;;4993716;28;20125;-76
2022/04/11 00:17:06;;;;;;;4.78;1.80;;;3.20;94.10;;;;;;4977130;28;20469;-76
2022/04/11 00:19:31;;;;;;;5.13;2.00;;;3.20;94.20;;;;;;4994618;28;20422;-76
2022/04/11 00:21:57;;;;;;;5.00;2.05;;;3.20;93.70;;;;;;4993714;28;20053;-76
2022/04/11 00:24:23;;;;;;;3.55;1.75;;;3.20;93.90;;;;;;4994177;28;20363;-76
2022/04/11 00:26:48;;;;;;;4.30;2.15;;;3.20;94.40;;;;;;4993996;28;20023;-76
2022/04/11 00:29:14;;;;;;;3.15;1.35;;;3.10;94.30;;;;;;4993441;28;20385;-76
2022/04/11 00:31:39;;;;;;;4.10;2.10;;;3.10;94.50;;;;;;4993456;28;20034;-76
2022/04/11 00:34:05;;;;;;;2.60;1.48;;;3.00;94.80;;;;;;4993950;28;20540;-76
2022/04/11 00:36:31;;;;;;;4.10;1.55;;;3.00;95.50;;;;;;4980181;28;20054;-77
2022/04/11 00:38:56;;;;;;;2.28;1.77;;;3.00;95.80;;;;;;5002599;28;20014;-76
2022/04/11 00:41:22;;;;;;;4.35;1.45;;;3.00;96.00;;;;;;5000419;28;20023;-76
2022/04/11 00:43:48;;;;;;;1.80;1.30;;;3.00;96.10;;;;;;4977983;28;20397;-76
2022/04/11 00:46:14;;;;;;;2.97;2.22;;;2.90;95.90;;;;;;4996019;28;20108;-76
2022/04/11 00:48:40;;;;;;;2.42;1.60;;;2.90;95.80;;;;;;4995291;28;20029;-76
2022/04/11 00:51:08;;;;;;;3.42;1.50;;;2.90;95.70;;;;;;4977901;28;20038;-76
2022/04/11 00:53:40;;;;;;;3.25;1.80;;;2.90;95.40;;;;;;4977623;28;20497;-76
2022/04/11 00:56:13;;;;;;;1.63;1.35;;;2.90;95.50;;;;;;4995172;28;20029;-77
2022/04/11 00:58:39;;;;;;;2.95;1.58;;;2.90;95.40;;;;;;4994985;28;20022;-75
2022/04/11 01:01:06;;;;;;;3.63;1.55;;;3.00;95.30;;;;;;4995518;28;20037;-76
2022/04/11 01:03:32;;;;;;;3.58;1.40;;;3.40;95.50;;;;;;4995974;28;20030;-75
2022/04/11 01:05:58;;;;;;;1.48;1.30;;;3.00;95.70;;;;;;4998190;28;20050;-76
2022/04/11 01:08:24;;;;;;;2.25;1.50;;;3.00;96.00;;;;;;4998659;28;20065;-76
2022/04/11 01:10:53;;;;;;;3.13;1.83;;;2.90;96.30;;;;;;4980210;28;20092;-75
2022/04/11 01:13:19;;;;;;;3.13;1.42;;;2.90;96.40;;;;;;4998538;28;20027;-75
2022/04/11 01:16:05;;;;;;;1.42;1.30;;;3.00;96.40;;;;;;4997371;28;20133;-75
2022/04/11 01:18:35;;;;;;;4.03;2.37;;;3.00;96.20;;;;;;4998287;28;20044;-75
2022/04/11 01:21:01;;;;;;;1.60;1.38;;;3.10;96.30;;;;;;4997528;28;20367;-76
2022/04/11 01:23:27;;;;;;;2.03;1.38;;;3.10;95.80;;;;;;4997124;28;20022;-76
2022/04/11 01:25:53;;;;;;;2.88;1.40;;;3.20;95.70;;;;;;4997604;28;20028;-76
2022/04/11 01:28:20;;;;;;;3.42;1.42;;;3.10;95.70;;;;;;4996856;28;20026;-76
2022/04/11 01:30:49;;;;;;;2.95;1.70;;;3.10;95.80;;;;;;4996968;28;20046;-76
2022/04/11 01:33:25;;;;;;;5.25;1.60;;;3.10;96.00;;;;;;4997009;28;20102;-76
2022/04/11 01:35:50;;;;;;;2.72;1.42;;;3.20;95.80;;;;;;4996285;28;20022;-75
2022/04/11 01:38:17;;;;;;;2.60;1.55;;;3.20;95.60;;;;;;4997180;28;20026;-76
2022/04/11 01:40:54;;;;;;;4.28;1.42;;;3.30;95.70;;;;;;4997343;28;20025;-76
2022/04/11 01:43:21;;;;;;;5.28;2.13;;;3.20;95.60;;;;;;4996853;28;20058;-75
2022/04/11 01:45:47;;;;;;;2.25;1.60;;;3.20;95.60;;;;;;4996466;28;20029;-76
2022/04/11 01:48:12;;;;;;;1.98;1.17;;;3.30;95.40;;;;;;4996915;28;20022;-76
2022/04/11 01:50:38;;;;;;;5.13;1.83;;;3.30;95.30;;;;;;4996430;28;20110;-76
2022/04/11 01:53:08;;;;;;;2.75;1.55;;;3.20;95.40;;;;;;4979136;28;20105;-75
2022/04/11 01:55:34;;;;;;;3.17;2.15;;;3.20;95.50;;;;;;4995357;28;20033;-76
2022/04/11 01:58:00;;;;;;;2.50;1.50;;;3.20;94.90;;;;;;4996526;28;20098;-76
2022/04/11 02:00:27;;;;;;;2.00;1.48;;;3.30;94.70;;;;;;4996734;28;20053;-76
2022/04/11 02:02:52;;;;;;;3.90;1.33;;;3.30;94.70;;;;;;4995972;28;20029;-76
2022/04/11 02:05:18;;;;;;;3.72;1.63;;;3.30;94.60;;;;;;4995478;28;20039;-75
2022/04/11 02:07:44;;;;;;;1.52;1.25;;;3.30;94.70;;;;;;4978467;28;20073;-76
2022/04/11 02:10:10;;;;;;;2.95;1.58;;;3.30;94.70;;;;;;4995450;28;20034;-76
2022/04/11 02:12:35;;;;;;;2.58;1.60;;;3.20;94.70;;;;;;4995923;28;20490;-76
2022/04/11 02:15:01;;;;;;;1.90;1.15;;;3.20;94.80;;;;;;4995724;28;20054;-76
2022/04/11 02:17:27;;;;;;;2.42;1.33;;;3.10;95.10;;;;;;4978105;28;20034;-76
2022/04/11 02:19:52;;;;;;;2.83;1.65;;;3.10;95.50;;;;;;4995283;28;20031;-75
2022/04/11 02:22:18;;;;;;;2.17;1.63;;;3.00;95.70;;;;;;4977296;28;20377;-76
2022/04/11 02:24:43;;;;;;;5.80;1.70;;;2.90;95.90;;;;;;4995363;28;20034;-76
2022/04/11 02:27:09;;;;;;;1.83;1.52;;;2.80;96.30;;;;;;4995196;28;20424;-75
2022/04/11 02:29:35;;;;;;;3.95;1.75;;;2.80;96.60;;;;;;4978278;28;20359;-76
2022/04/11 02:32:00;;;;;;;3.80;1.42;;;2.80;96.70;;;;;;4995367;28;20030;-76
2022/04/11 02:34:26;;;;;;;2.78;1.30;;;2.70;96.90;;;;;;4995448;28;20049;-76
2022/04/11 02:36:52;;;;;;;2.42;1.50;;;2.70;96.90;;;;;;4995741;28;20097;-76
2022/04/11 02:39:17;;;;;;;3.65;2.08;;;2.70;97.10;;;;;;4977889;28;20442;-75
2022/04/11 02:41:43;;;;;;;2.65;1.50;;;2.70;97.00;;;;;;4995287;28;20029;-75
2022/04/11 02:44:09;;;;;;;2.80;1.70;;;2.60;97.20;;;;;;4977695;28;20022;-75
2022/04/11 02:46:34;;;;;;;2.60;1.23;;;2.50;97.40;;;;;;4995256;28;20026;-76
2022/04/11 02:49:01;;;;;;;3.13;1.20;;;2.50;97.30;;;;;;4994578;28;20062;-76
2022/04/11 02:51:27;;;;;;;2.65;1.30;;;2.50;97.70;;;;;;4994711;28;20081;-76
2022/04/11 02:53:52;;;;;;;1.75;1.20;;;2.40;98.00;;;;;;4995625;28;20417;-76
2022/04/11 02:56:18;;;;;;;1.77;1.15;;;2.30;98.30;;;;;;4995631;28;20027;-76
2022/04/11 02:58:44;;;;;;;1.48;0.82;;;2.30;98.50;;;;;;4994759;28;20026;-76
2022/04/11 03:01:09;;;;;;;0.98;0.98;;;2.20;98.60;;;;;;4976835;28;20121;-77
2022/04/11 03:03:36;;;;;;;3.15;1.17;;;2.10;98.90;;;;;;4995704;28;20038;-77
2022/04/11 03:06:02;;;;;;;5.00;4.53;;;2.00;99.40;;;;;;4995083;28;20065;-77
2022/04/11 03:08:27;;;;;;;3.67;3.33;;;1.90;99.50;;;;;;4994924;28;20545;-76
2022/04/11 03:10:54;;;;;;;4.65;4.10;;;1.80;99.70;;;;;;4994911;28;20121;-76
2022/04/11 03:13:20;;;;;;;3.30;2.30;;;1.80;99.90;;;;;;4995458;28;20022;-76
2022/04/11 03:15:46;;;;;;;3.22;1.67;;;1.70;99.90;;;;;;4994793;28;20112;-75
2022/04/11 03:18:11;;;;;;;3.90;1.85;;;1.70;99.90;;;;;;4994731;28;20036;-76
2022/04/11 03:20:37;;;;;;;5.88;1.70;;;1.60;99.90;;;;;;4995100;28;20033;-76
2022/04/11 03:23:02;;;;;;;2.42;1.45;;;1.60;99.90;;;;;;5001213;28;20026;-77
2022/04/11 03:25:28;;;;;;;3.20;2.83;;;1.50;99.90;;;;;;4985284;28;20030;-75
2022/04/11 03:27:54;;;;;;;5.35;1.45;;;1.50;99.90;;;;;;5002621;28;20023;-76
2022/04/11 03:30:19;;;;;;;3.65;1.63;;;1.50;99.90;;;;;;4982412;28;20034;-76
2022/04/11 03:32:45;;;;;;;3.22;1.67;;;1.40;99.90;;;;;;4995707;28;20026;-75
2022/04/11 03:35:10;;;;;;;4.40;1.83;;;1.30;99.90;;;;;;4994587;28;20081;-76
2022/04/11 03:37:36;;;;;;;2.28;1.73;;;1.40;99.90;;;;;;4994976;28;20074;-75
2022/04/11 03:40:03;;;;;;;3.47;1.60;;;1.20;99.90;;;;;;4994624;28;20058;-76
2022/04/11 03:42:28;;;;;;;2.63;1.60;;;1.20;99.90;;;;;;4994510;28;20478;-76
2022/04/11 03:44:54;;;;;;;2.92;1.80;;;1.10;99.90;;;;;;4994546;28;20081;-76
2022/04/11 03:47:19;;;;;;;5.80;3.95;;;1.10;99.90;;;;;;4994585;28;20535;-76
2022/04/11 03:49:45;;;;;;;4.00;1.77;;;1.10;99.90;;;;;;4997704;28;20030;-76
2022/04/11 03:52:11;;;;;;;5.25;1.75;;;1.00;99.90;;;;;;4997167;28;20060;-76
2022/04/11 03:54:36;;;;;;;2.05;1.73;;;1.00;99.90;;;;;;4998161;28;20100;-76
2022/04/11 03:57:02;;;;;;;4.25;1.80;;;1.00;99.90;;;;;;5002793;28;20026;-76
2022/04/11 03:59:29;;;;;;;3.78;1.67;;;1.00;99.90;;;;;;5004783;28;20540;-76
2022/04/11 04:01:55;;;;;;;3.40;1.85;;;0.90;99.90;;;;;;4999236;28;20113;-76
2022/04/11 04:04:20;;;;;;;6.32;2.17;;;1.00;99.90;;;;;;4999645;28;20411;-76
2022/04/11 04:06:46;;;;;;;3.95;2.40;;;1.00;99.90;;;;;;5000142;28;20034;-76
2022/04/11 04:09:12;;;;;;;3.20;2.60;;;0.90;99.90;;;;;;4997912;28;20027;-76
2022/04/11 04:11:37;;;;;;;4.70;3.08;;;0.90;99.90;;;;;;4997852;28;20539;-76
2022/04/11 04:14:03;;;;;;;3.83;2.67;;;0.90;99.90;;;;;;4997262;28;20045;-77
2022/04/11 04:16:28;;;;;;;2.35;1.70;;;0.90;99.90;;;;;;4997328;28;20410;-77
2022/04/11 04:18:54;;;;;;;5.00;2.28;;;0.90;99.90;;;;;;4996051;28;20474;-76
2022/04/11 04:21:21;;;;;;;6.90;2.72;;;0.90;99.90;;;;;;4998978;28;20085;-79
2022/04/11 04:23:46;;;;;;;5.15;2.92;;;1.50;99.90;;;;;;4981911;28;20105;-77
2022/04/11 04:26:13;;;;;;;3.38;2.58;;;1.50;99.90;;;;;;5000568;28;20065;-77
2022/04/11 04:28:39;;;;;;;3.47;2.53;;;1.40;99.90;;;;;;4997253;28;20023;-77
2022/04/11 04:31:04;;;;;;;7.63;1.95;;;1.30;99.90;;;;;;4979574;28;20126;-76
2022/04/11 04:33:31;;;;;;;4.53;2.60;;;1.20;99.90;;;;;;5002470;28;20026;-76
2022/04/11 04:35:58;;;;;;;4.50;2.25;;;1.20;99.90;;;;;;5008180;28;20057;-78
2022/04/11 04:38:24;;;;;;;4.03;2.00;;;1.20;99.90;;;;;;5009452;23;20050;-77
2022/04/11 04:40:50;;;;;;;7.65;2.70;;;1.10;99.90;;;;;;4983724;28;20086;-77
2022/04/11 04:43:15;;;;;;;8.85;4.50;;;1.00;99.90;;;;;;4978913;28;20047;-77
2022/04/11 04:45:41;;;;;;;5.22;2.88;;;0.90;99.90;;;;;;4979763;28;20355;-77
2022/04/11 04:48:07;;;;;;;9.80;3.08;;;0.90;99.90;;;;;;4981427;28;20030;-77
2022/04/11 04:50:33;;;;;;;8.93;2.92;;;0.90;99.90;;;;;;4980220;28;20037;-77
2022/04/11 04:52:58;;;;;;;7.43;4.57;;;0.90;99.90;;;;;;4981952;28;20023;-77
2022/04/11 04:55:24;;;;;;;7.68;3.03;;;0.80;99.90;;;;;;4979524;28;20019;-77
2022/04/11 04:57:50;;;;;;;8.60;3.75;;;0.80;99.90;;;;;;4979826;28;20058;-77
2022/04/11 05:00:16;;;;;;;6.30;4.22;;;0.90;99.90;;;;;;4980697;28;20042;-77
2022/04/11 05:02:43;;;;;;;38.90;13.45;;;0.90;99.90;;;;;;4980227;28;20027;-77
2022/04/11 05:05:11;;;;;;;37.20;13.13;;;0.90;99.90;;;;;;4979763;28;20062;-77
2022/04/11 05:07:36;;;;;;;18.20;7.95;;;1.00;99.90;;;;;;4979303;28;20101;-77
2022/04/11 05:10:07;;;;;;;8.65;4.53;;;1.00;99.90;;;;;;4977294;28;20169;-76
2022/04/11 05:12:44;;;;;;;8.55;3.90;;;1.10;99.90;;;;;;4979141;28;20031;-76
2022/04/11 05:15:11;;;;;;;9.52;3.08;;;1.20;99.90;;;;;;4980306;28;20031;-77
2022/04/11 05:17:37;;;;;;;7.00;3.28;;;1.30;99.90;;;;;;4979183;28;20023;-77
2022/04/11 05:20:05;;;;;;;6.18;3.67;;;1.20;99.90;;;;;;4978685;28;20351;-77
2022/04/11 05:22:30;;;;;;;12.18;7.93;;;1.20;99.90;;;;;;4978148;28;20034;-77
2022/04/11 05:24:56;;;;;;;10.73;9.27;;;1.30;99.90;;;;;;4978747;28;20109;-77
2022/04/11 05:27:22;;;;;;;11.20;4.53;;;1.30;99.90;;;;;;4978053;28;20018;-77
2022/04/11 05:29:48;;;;;;;5.07;2.92;;;1.40;99.90;;;;;;4977071;28;20109;-77
2022/04/11 05:32:13;;;;;;;4.88;3.20;;;1.50;99.90;;;;;;4976991;28;20055;-77
2022/04/11 05:34:39;;;;;;;6.05;3.40;;;1.60;99.90;;;;;;4977857;28;20031;-77
2022/04/11 05:37:06;;;;;;;4.95;3.05;;;1.60;99.90;;;;;;4984133;28;20077;-77
2022/04/11 05:39:32;;;;;;;4.22;2.53;;;1.70;99.90;;;;;;4996865;28;20019;-77
2022/04/11 05:41:58;;;;;;;4.35;2.70;;;1.80;99.90;;;;;;4979923;28;20081;-77
2022/04/11 05:44:24;;;;;;;6.07;5.50;;;1.90;99.90;;;;;;4997356;28;20027;-77
2022/04/11 05:46:52;;;;;;;4.50;3.45;;;1.90;99.90;;;;;;4995910;28;20121;-77
2022/04/11 05:49:22;;;;;;;10.43;3.00;;;2.00;99.90;;;;;;4996797;28;20029;-77
2022/04/11 05:51:48;;;;;;;5.88;3.30;;;2.20;99.90;;;;;;4996850;28;20034;-77
2022/04/11 05:54:14;;;;;;;3.97;3.08;;;2.20;99.90;;;;;;4996730;28;20023;-77
2022/04/11 05:56:40;;;;;;;4.50;3.20;;;2.40;99.90;;;;;;4981460;28;20030;-77
2022/04/11 05:59:08;;;;;;;4.75;2.92;;;2.60;99.90;;;;;;4998257;28;20093;-76
2022/04/11 06:01:34;;;;;;;4.40;3.00;;;2.80;99.90;;;;;;4998308;28;20024;-77
2022/04/11 06:04:00;;;;;;;6.22;2.60;;;2.80;99.90;;;;;;4996032;28;20030;-76
2022/04/11 06:06:25;;;;;;;9.88;3.47;;;2.90;99.90;;;;;;4996195;28;20034;-78
2022/04/11 06:08:51;;;;;;;7.63;2.70;;;3.00;99.90;;;;;;4996355;28;20022;-77
2022/04/11 06:11:17;;;;;;;6.82;2.88;;;3.10;99.90;;;;;;4996162;28;20036;-77
2022/04/11 06:13:46;;;;;;;7.38;3.00;;;3.10;99.90;;;;;;4997595;28;20018;-77
2022/04/11 06:16:12;;;;;;;6.15;3.63;;;3.50;99.90;;;;;;4996470;28;20026;-77
2022/04/11 06:18:37;;;;;;;4.93;3.13;;;3.20;99.90;;;;;;4996003;28;20026;-77
2022/04/11 06:21:03;;;;;;;4.45;2.88;;;3.50;99.90;;;;;;4996012;28;20019;-77
2022/04/11 06:23:29;;;;;;;4.93;2.90;;;3.80;99.90;;;;;;4996392;28;20385;-77
2022/04/11 06:25:55;;;;;;;3.80;3.10;;;4.10;99.90;;;;;;4979445;28;20027;-77
2022/04/11 06:28:20;;;;;;;11.05;2.95;;;4.10;99.90;;;;;;4996599;28;20026;-77
2022/04/11 06:31:05;;;;;;;4.93;3.28;;;4.50;99.90;;;;;;4984939;28;20026;-82
2022/04/11 06:33:36;;;;;;;4.70;3.13;;;5.80;99.90;;;;;;5020484;28;20037;-81
2022/04/11 06:44:32;;;;;;;5.43;3.03;;;8.60;95.10;;;;;;5829634;23;20039;-81
2022/04/11 06:46:58;;;;;;;14.13;2.70;;;9.00;87.30;;;;;;4942515;29;20692;-86
2022/04/11 06:49:24;;;;;;;5.70;2.00;;;9.30;83.00;;;;;;4923891;29;20043;-87
2022/04/11 06:54:46;;;;;;;2.85;1.92;;;9.30;77.00;;;;;;5117539;23;20052;-82
2022/04/11 07:00:19;;;;;;;5.03;2.15;;;9.40;83.30;;;;;;5022715;23;20066;-84
2022/04/11 07:02:44;;;;;;;9.40;2.03;;;9.50;77.70;;;;;;4924217;29;20038;-86
2022/04/11 07:05:10;;;;;;;3.78;1.55;;;9.50;82.50;;;;;;4944054;28;20019;-85
2022/04/11 07:07:39;;;;;;;3.00;1.27;;;9.60;79.90;;;;;;4951411;29;20062;-86
2022/04/11 07:10:06;;;;;;;5.72;1.80;;;9.90;77.50;;;;;;4940305;29;20039;-87
2022/04/11 07:13:09;;;;;;;4.55;1.65;;;10.00;76.80;;;;;;4953074;29;20027;-82
2022/04/11 07:15:36;;;;;;;4.40;1.27;;;9.80;74.50;;;;;;5014452;23;20070;-82
2022/04/11 07:18:02;;;;;;;2.40;1.20;;;9.70;74.50;;;;;;4949699;29;20070;-83
2022/04/11 07:20:28;;;;;;;12.05;2.25;;;9.90;73.60;;;;;;4944514;29;20027;-87
2022/04/11 07:22:53;;;;;;;1.75;1.15;;;10.00;74.70;;;;;;4957038;29;20459;-85
2022/04/11 07:25:19;;;;;;;1.85;1.50;;;10.20;73.40;;;;;;4939422;28;20458;-86
2022/04/11 07:27:44;;;;;;;3.20;1.38;;;10.20;73.20;;;;;;4940045;29;20023;-85
2022/04/11 07:33:14;;;;;;;7.68;3.63;;;10.20;68.50;;;;;;4962077;28;20035;-91
2022/04/11 07:35:40;;;;;;;2.25;1.75;;;9.90;66.70;;;;;;4949957;29;20023;-88
2022/04/11 08:18:30;;;;;;;1.10;1.00;;;9.70;60.20;;;;;;4970861;23;20059;-80
2022/04/11 08:20:55;;;;;;;0.93;0.68;;;10.30;70.50;;;;;;4938026;29;20064;-86
2022/04/11 08:23:21;;;;;;;2.65;0.70;;;10.60;64.10;;;;;;4955655;29;20382;-84
2022/04/11 08:25:50;;;;;;;5.22;1.08;;;10.80;60.80;;;;;;4937774;29;20080;-85
2022/04/11 08:28:16;;;;;;;4.50;1.45;;;10.90;59.10;;;;;;4938342;29;20027;-83
2022/04/11 08:30:42;;;;;;;1.27;1.08;;;11.00;59.70;;;;;;4938010;29;20035;-86
2022/04/11 08:33:08;;;;;;;2.38;1.10;;;10.80;58.40;;;;;;4938758;29;20028;-86
2022/04/11 08:35:34;;;;;;;1.85;1.10;;;10.90;57.80;;;;;;4939291;29;20023;-86
2022/04/11 08:37:59;;;;;;;1.42;0.90;;;10.80;59.40;;;;;;4938426;29;20463;-85
2022/04/11 08:40:25;;;;;;;1.65;1.00;;;10.90;60.50;;;;;;4938809;29;20090;-85
2022/04/11 08:42:51;;;;;;;3.85;1.30;;;11.00;58.70;;;;;;4938566;29;20019;-86
2022/04/11 08:45:22;;;;;;;3.15;0.95;;;11.00;58.90;;;;;;4938475;28;20023;-85
2022/04/11 08:47:48;;;;;;;2.17;1.00;;;11.10;58.40;;;;;;4937977;29;20521;-85
2022/04/11 08:50:14;;;;;;;1.85;1.35;;;11.20;61.30;;;;;;4938008;29;20134;-85
2022/04/11 08:52:41;;;;;;;2.42;0.88;;;11.40;59.30;;;;;;4938147;29;20435;-85
2022/04/11 08:55:08;;;;;;;1.67;0.95;;;11.60;59.60;;;;;;4937996;29;20375;-85
2022/04/11 08:57:37;;;;;;;3.38;1.23;;;11.60;57.70;;;;;;4938088;29;20023;-84
2022/04/11 09:00:12;;;;;;;1.08;0.98;;;11.60;57.70;;;;;;4938192;29;20028;-85
2022/04/11 09:02:41;;;;;;;0.80;0.80;;;11.70;58.00;;;;;;4938228;29;20031;-85
2022/04/11 09:05:07;;;;;;;0.85;0.80;;;11.70;57.60;;;;;;4939254;29;20470;-85
2022/04/11 09:07:57;;;;;;;1.20;1.00;;;11.70;59.40;;;;;;4938274;29;20481;-84
2022/04/11 09:10:26;;;;;;;1.40;0.93;;;11.90;57.50;;;;;;4930619;29;20039;-85
2022/04/11 09:12:54;;;;;;;2.28;1.75;;;12.10;57.00;;;;;;4937761;29;20027;-85
2022/04/11 09:15:23;;;;;;;2.90;0.90;;;12.10;56.80;;;;;;4937652;28;20382;-84
2022/04/11 09:17:49;;;;;;;1.25;0.90;;;12.20;56.70;;;;;;4954839;29;20499;-84
2022/04/11 09:20:26;;;;;;;2.00;1.02;;;12.30;56.40;;;;;;4937676;29;20113;-85
2022/04/11 09:22:52;;;;;;;3.40;0.90;;;12.20;52.70;;;;;;4938106;29;20035;-86
2022/04/11 09:25:22;;;;;;;0.98;0.98;;;12.00;53.50;;;;;;4938839;28;20114;-86
2022/04/11 09:28:02;;;;;;;3.00;0.90;;;11.90;53.80;;;;;;4941318;29;20027;-83
2022/04/11 09:30:31;;;;;;;1.05;0.90;;;11.60;53.50;;;;;;4941305;29;20113;-86
2022/04/11 09:32:56;;;;;;;2.20;1.35;;;11.40;53.70;;;;;;4958389;29;20023;-85
2022/04/11 09:35:26;;;;;;;0.90;0.80;;;11.40;53.20;;;;;;4941344;28;20023;-86
2022/04/11 09:38:08;;;;;;;4.80;1.00;;;11.40;53.50;;;;;;4941176;29;20022;-86
2022/04/11 09:40:44;;;;;;;1.48;0.93;;;11.60;53.20;;;;;;4941181;29;20031;-86
2022/04/11 09:43:11;;;;;;;1.63;1.02;;;11.90;56.70;;;;;;4941508;29;20375;-86
2022/04/11 09:46:18;;;;;;;1.35;0.98;;;12.10;53.80;;;;;;4941063;29;20031;-87
2022/04/11 09:48:45;;;;;;;1.20;0.70;;;12.40;53.80;;;;;;4941383;29;20486;-87
2022/04/11 09:51:15;;;;;;;1.23;1.08;;;12.60;55.00;;;;;;4940697;29;20043;-85
2022/04/11 09:53:42;;;;;;;1.17;0.73;;;12.80;54.30;;;;;;4941189;29;20019;-86
2022/04/11 09:56:09;;;;;;;1.73;0.90;;;12.80;51.80;;;;;;4940126;29;20027;-83
2022/04/11 09:58:37;;;;;;;1.15;0.93;;;12.80;52.60;;;;;;4940144;29;20031;-83
2022/04/11 10:01:04;;;;;;;0.93;0.82;;;12.60;51.40;;;;;;4940002;29;20113;-84
2022/04/11 10:03:30;;;;;;;1.10;0.70;;;12.30;52.30;;;;;;4940274;29;20023;-90
2022/04/11 10:05:57;;;;;;;1.83;0.90;;;12.10;56.90;;;;;;4940695;29;20030;-87
2022/04/11 10:08:25;;;;;;;1.50;1.08;;;12.10;55.20;;;;;;4939843;29;20070;-83
2022/04/11 10:10:51;;;;;;;2.08;0.75;;;12.20;53.80;;;;;;4939907;29;20067;-85
2022/04/11 10:13:17;;;;;;;0.80;0.80;;;12.10;52.40;;;;;;4939572;29;20530;-84
2022/04/11 10:15:46;;;;;;;1.00;0.88;;;12.00;53.00;;;;;;4939859;29;20031;-84
2022/04/11 10:18:14;;;;;;;4.00;0.90;;;12.00;53.00;;;;;;4939642;29;20039;-86
2022/04/11 10:20:46;;;;;;;1.45;0.90;;;11.90;52.90;;;;;;4939004;29;20038;-83
2022/04/11 10:23:53;;;;;;;1.13;0.88;;;12.00;53.20;;;;;;4939649;29;20118;-83
2022/04/11 10:26:19;;;;;;;0.77;0.77;;;12.10;53.50;;;;;;4897709;29;20899;-83
2022/04/11 10:28:47;;;;;;;2.00;0.90;;;12.30;52.40;;;;;;4944846;29;20031;-86
2022/04/11 10:31:14;;;;;;;1.58;1.48;;;12.40;52.60;;;;;;4939602;29;20455;-83
2022/04/11 10:33:47;;;;;;;1.20;1.10;;;12.50;52.30;;;;;;4938697;29;20023;-84
2022/04/11 10:36:32;;;;;;;1.05;0.90;;;12.50;52.60;;;;;;4938830;29;20082;-82
2022/04/11 10:39:16;;;;;;;1.67;0.85;;;12.60;52.50;;;;;;4939312;29;20087;-85
2022/04/11 10:41:54;;;;;;;3.20;0.80;;;12.70;51.80;;;;;;4939538;29;20035;-85
2022/04/11 10:45:03;;;;;;;1.83;0.93;;;12.70;55.10;;;;;;4939464;29;20027;-84
2022/04/11 10:47:33;;;;;;;0.63;0.60;;;12.90;55.10;;;;;;4939285;29;20023;-84
2022/04/11 10:49:59;;;;;;;2.97;1.02;;;13.20;55.30;;;;;;4939642;29;20035;-84
2022/04/11 10:52:33;;;;;;;0.63;0.63;;;13.40;55.90;;;;;;4956526;29;20028;-85
2022/04/11 10:55:11;;;;;;;0.85;0.75;;;13.50;54.60;;;;;;4939161;29;20019;-84
2022/04/11 10:57:37;;;;;;;2.80;1.10;;;13.30;50.40;;;;;;4938970;29;20038;-84
2022/04/11 11:00:10;;;;;;;1.20;0.73;;;13.10;51.00;;;;;;4939520;29;20113;-85
2022/04/11 11:02:54;;;;;;;1.55;1.00;;;13.00;51.50;;;;;;4939391;29;20051;-85
2022/04/11 11:05:27;;;;;;;0.60;0.45;;;12.80;51.60;;;;;;4939194;28;20054;-85
2022/04/11 11:08:14;;;;;;;2.25;0.80;;;12.90;53.00;;;;;;4939620;29;20031;-86
2022/04/11 11:10:50;;;;;;;0.88;0.82;;;13.00;52.50;;;;;;4939255;29;20058;-85
2022/04/11 11:13:34;;;;;;;3.45;1.35;;;13.00;52.70;;;;;;4939210;29;20497;-85
2022/04/11 11:16:20;;;;;;;2.22;0.90;;;12.80;51.20;;;;;;4938823;29;20042;-84
2022/04/11 11:18:46;;;;;;;2.05;0.90;;;12.70;51.50;;;;;;4938694;29;20071;-85
2022/04/11 11:21:12;;;;;;;0.82;0.80;;;12.50;51.90;;;;;;4939011;29;20070;-84
2022/04/11 11:23:38;;;;;;;2.75;1.95;;;12.40;51.90;;;;;;4938838;29;20028;-84
2022/04/11 11:26:08;;;;;;;0.77;0.77;;;12.30;52.10;;;;;;4939132;29;20490;-84
2022/04/11 11:28:34;;;;;;;2.78;1.05;;;12.30;52.00;;;;;;4938838;29;20027;-84
2022/04/11 11:31:00;;;;;;;1.70;1.20;;;12.20;53.00;;;;;;4955823;29;20110;-84
2022/04/11 11:33:27;;;;;;;2.38;0.88;;;12.20;53.40;;;;;;4938896;29;20082;-84
2022/04/11 11:35:54;;;;;;;0.98;0.80;;;12.20;53.20;;;;;;4938768;29;20110;-84
2022/04/11 11:38:27;;;;;;;2.42;0.85;;;12.20;52.50;;;;;;4939030;29;20023;-84
2022/04/11 11:40:59;;;;;;;3.05;1.33;;;12.20;53.60;;;;;;4938797;29;20027;-85
2022/04/11 11:43:27;;;;;;;1.27;0.90;;;12.20;53.20;;;;;;4938773;29;20027;-85
2022/04/11 11:45:58;;;;;;;1.20;0.80;;;12.20;53.70;;;;;;4939184;29;20026;-86
2022/04/11 11:48:29;;;;;;;1.40;1.30;;;12.10;53.00;;;;;;4938599;29;20102;-85
2022/04/11 11:50:57;;;;;;;1.63;1.45;;;12.10;52.60;;;;;;4939393;29;20626;-85
2022/04/11 11:53:25;;;;;;;1.15;0.82;;;12.00;52.60;;;;;;4938908;29;20162;-84
2022/04/11 11:55:55;;;;;;;1.50;1.40;;;12.00;53.10;;;;;;4938689;29;20383;-84
2022/04/11 11:58:31;;;;;;;3.97;1.20;;;12.10;52.80;;;;;;4938720;29;20026;-84
2022/04/11 12:00:57;;;;;;;;;;;12.00;53.20;;;;;;4938939;29;20027;-84
2022/04/11 12:06:06;;;;;;;2.45;1.15;;;12.00;53.70;;;;;;4955594;28;20034;-84
2022/04/11 12:08:32;;;;;;;1.25;1.10;;;12.10;54.10;;;;;;4937988;29;20031;-83
2022/04/11 12:10:59;;;;;;;0.90;0.85;;;12.10;54.70;;;;;;4938121;29;20035;-84
2022/04/11 12:13:30;;;;;;;1.85;1.10;;;12.30;55.10;;;;;;4938157;29;20379;-84
2022/04/11 12:16:15;;;;;;;3.17;0.73;;;12.50;55.20;;;;;;4938014;29;20023;-84
2022/04/11 12:19:07;;;;;;;1.02;0.90;;;12.80;54.80;;;;;;4934777;29;20531;-83
2022/04/11 12:21:41;;;;;;;3.28;1.17;;;13.00;54.40;;;;;;4933158;29;20483;-83
2022/04/11 12:24:09;;;;;;;4.13;0.90;;;13.20;53.40;;;;;;4935324;29;20106;-84
2022/04/11 12:26:48;;;;;;;1.73;1.10;;;13.30;52.20;;;;;;4935823;29;20019;-84
2022/04/11 12:29:15;;;;;;;7.18;1.20;;;13.20;50.50;;;;;;4934626;29;20063;-76
2022/04/11 12:31:58;;;;;;;2.33;1.42;;;13.10;57.30;;;;;;4934347;29;20388;-77
2022/04/11 12:34:38;;;;;;;1.42;0.68;;;13.60;60.90;;;;;;4933789;29;20356;-75
2022/04/11 12:37:08;;;;;;;1.60;0.85;;;14.00;53.70;;;;;;4934125;29;20036;-76
2022/04/11 12:39:53;;;;;;;1.67;0.85;;;14.30;54.00;;;;;;4931543;29;20419;-76
2022/04/11 12:42:26;;;;;;;2.50;1.13;;;14.60;54.60;;;;;;4933264;29;20055;-77
2022/04/11 12:45:06;;;;;;;1.38;1.05;;;14.70;54.20;;;;;;4934243;29;20016;-80
2022/04/11 12:47:32;;;;;;;1.38;0.70;;;14.60;52.50;;;;;;4933089;29;20031;-76
2022/04/11 12:49:58;;;;;;;1.02;1.00;;;14.60;52.70;;;;;;4935870;29;20028;-84
2022/04/11 12:52:29;;;;;;;0.82;0.82;;;14.60;50.90;;;;;;4934561;29;20071;-83
2022/04/11 12:55:04;;;;;;;2.85;1.33;;;14.50;50.80;;;;;;4935846;29;20456;-84
2022/04/11 12:57:33;;;;;;;2.05;1.00;;;14.40;50.60;;;;;;4934522;29;20039;-84
2022/04/11 13:00:16;;;;;;;1.30;1.00;;;14.20;49.40;;;;;;4936918;29;20023;-83
2022/04/11 13:02:42;;;;;;;1.85;1.00;;;14.00;49.40;;;;;;4938449;29;20036;-84
2022/04/11 13:05:13;;;;;;;2.10;1.10;;;14.00;51.80;;;;;;4938566;29;20107;-84
2022/04/11 13:07:39;;;;;;;1.30;0.90;;;14.10;51.30;;;;;;4938532;29;20511;-84
2022/04/11 13:10:05;;;;;;;2.40;0.70;;;14.20;52.10;;;;;;4938314;29;20028;-83
2022/04/11 13:12:31;;;;;;;1.17;1.05;;;14.30;52.30;;;;;;4938509;29;20086;-84
2022/04/11 13:14:57;;;;;;;1.13;0.90;;;14.50;51.20;;;;;;4938232;29;20114;-84
2022/04/11 13:20:08;;;;;;;2.05;1.08;;;14.60;52.20;;;;;;4939666;29;20115;-85
2022/04/11 13:22:34;;;;;;;2.28;0.80;;;14.70;51.50;;;;;;4938247;29;20027;-84
2022/04/11 13:25:01;;;;;;;0.95;0.80;;;14.80;50.20;;;;;;4937894;29;20591;-84
2022/04/11 13:27:27;;;;;;;0.80;0.80;;;14.80;51.10;;;;;;4937845;29;20028;-83
2022/04/11 13:29:53;;;;;;;2.28;1.10;;;14.80;50.10;;;;;;4937955;29;20493;-84
2022/04/11 13:32:19;;;;;;;0.95;0.70;;;14.80;50.80;;;;;;4937732;29;20024;-84
2022/04/11 13:34:45;;;;;;;1.70;0.63;;;14.80;49.70;;;;;;4938105;29;20023;-83
2022/04/11 13:37:11;;;;;;;0.55;0.55;;;14.80;49.90;;;;;;4937632;29;20118;-84
2022/04/11 13:39:37;;;;;;;1.77;0.80;;;14.80;49.60;;;;;;4939132;29;20031;-84
2022/04/11 13:42:03;;;;;;;1.67;0.80;;;14.80;51.00;;;;;;4937860;29;20384;-85
2022/04/11 13:44:29;;;;;;;1.50;0.93;;;14.80;50.70;;;;;;4937930;29;20031;-84
2022/04/11 13:46:55;;;;;;;1.15;1.05;;;14.70;50.80;;;;;;4939056;29;20032;-83
2022/04/11 13:49:21;;;;;;;1.88;0.88;;;14.70;49.20;;;;;;4938748;29;20028;-84
2022/04/11 13:51:48;;;;;;;2.47;1.15;;;14.60;48.40;;;;;;4937940;29;20036;-84
2022/04/11 13:54:14;;;;;;;2.15;0.95;;;14.60;48.70;;;;;;4937772;29;20031;-84
2022/04/11 13:56:41;;;;;;;0.60;0.60;;;14.60;49.40;;;;;;4937750;29;20483;-83
2022/04/11 13:59:20;;;;;;;1.98;1.02;;;14.70;50.20;;;;;;4937424;29;20024;-84
2022/04/11 14:01:47;;;;;;;2.80;1.27;;;14.70;49.40;;;;;;4937598;29;20034;-85